createdAt,value
2017-10-22T00:00:22.256Z,100646
2017-10-22T00:02:48.515Z,100645
2017-10-22T00:05:15.522Z,100648
2017-10-22T00:07:41.783Z,100647
2017-10-22T00:10:08.821Z,100647
2017-10-22T00:12:35.838Z,100652
2017-10-22T00:15:02.117Z,100648
2017-10-22T00:17:28.565Z,100648
2017-10-22T00:19:54.815Z,100649
2017-10-22T00:22:21.087Z,100648
2017-10-22T00:24:48.094Z,100649
2017-10-22T00:27:14.365Z,100645
2017-10-22T00:29:41.364Z,100636
2017-10-22T00:32:08.624Z,100634
2017-10-22T00:34:35.700Z,100636
2017-10-22T00:37:01.994Z,100641
2017-10-22T00:39:28.288Z,100647
2017-10-22T00:41:54.577Z,100647
2017-10-22T00:44:20.844Z,100642
2017-10-22T00:46:47.880Z,100639
2017-10-22T00:49:14.895Z,100639
2017-10-22T00:51:41.201Z,100634
2017-10-22T00:54:07.578Z,100626
2017-10-22T00:56:33.885Z,100624
2017-10-22T00:59:00.161Z,100622
2017-10-22T01:01:26.484Z,100618
2017-10-22T01:03:53.480Z,100613
2017-10-22T01:06:19.744Z,100608
2017-10-22T01:08:46.037Z,100603
2017-10-22T01:11:12.324Z,100603
2017-10-22T01:13:38.604Z,100606
2017-10-22T01:16:05.004Z,100600
2017-10-22T01:18:31.295Z,100599
2017-10-22T01:20:58.493Z,100602
2017-10-22T01:23:24.792Z,100602
2017-10-22T01:25:51.841Z,100602
2017-10-22T01:28:18.146Z,100606
2017-10-22T01:30:44.485Z,100605
2017-10-22T01:33:11.573Z,100605
2017-10-22T01:35:37.895Z,100607
2017-10-22T01:38:04.255Z,100598
2017-10-22T01:40:30.559Z,100598
2017-10-22T01:42:56.885Z,100597
2017-10-22T01:45:23.491Z,100593
2017-10-22T01:47:50.563Z,100593
2017-10-22T01:50:16.876Z,100603
2017-10-22T01:52:43.197Z,100600
2017-10-22T01:55:10.263Z,100594
2017-10-22T01:57:37.325Z,100597
2017-10-22T02:00:03.862Z,100597
2017-10-22T02:02:30.182Z,100594
2017-10-22T02:04:56.488Z,100597
2017-10-22T02:07:23.779Z,100592
2017-10-22T02:09:50.073Z,100590
2017-10-22T02:12:17.101Z,100591
2017-10-22T02:14:43.428Z,100588
2017-10-22T02:17:09.742Z,100584
2017-10-22T02:19:36.060Z,100581
2017-10-22T02:22:02.397Z,100572
2017-10-22T02:24:28.702Z,100569
2017-10-22T02:26:55.062Z,100567
2017-10-22T02:29:21.360Z,100574
2017-10-22T02:31:47.654Z,100567
2017-10-22T02:34:14.721Z,100565
2017-10-22T02:36:41.032Z,100565
2017-10-22T02:39:08.092Z,100562
2017-10-22T02:41:34.429Z,100557
2017-10-22T02:44:01.477Z,100559
2017-10-22T02:46:28.521Z,100560
2017-10-22T02:48:55.539Z,100557
2017-10-22T02:51:21.835Z,100559
2017-10-22T02:53:48.138Z,100560
2017-10-22T02:56:14.488Z,100557
2017-10-22T02:58:40.759Z,100561
2017-10-22T03:01:07.050Z,100556
2017-10-22T03:03:33.346Z,100556
2017-10-22T03:06:00.402Z,100554
2017-10-22T03:08:26.716Z,100559
2017-10-22T03:10:53.758Z,100556
2017-10-22T03:13:20.833Z,100553
2017-10-22T03:15:47.126Z,100561
2017-10-22T03:18:13.408Z,100562
2017-10-22T03:20:39.929Z,100559
2017-10-22T03:23:06.211Z,100560
2017-10-22T03:25:32.488Z,100560
2017-10-22T03:27:58.811Z,100561
2017-10-22T03:30:25.117Z,100561
2017-10-22T03:32:52.138Z,100565
2017-10-22T03:35:18.406Z,100569
2017-10-22T03:37:45.436Z,100570
2017-10-22T03:40:12.456Z,100570
2017-10-22T03:42:38.759Z,100566
2017-10-22T03:45:05.051Z,100561
2017-10-22T03:47:32.056Z,100561
2017-10-22T03:49:59.062Z,100562
2017-10-22T03:52:25.379Z,100562
2017-10-22T03:54:52.385Z,100563
2017-10-22T03:57:18.663Z,100565
2017-10-22T03:59:44.945Z,100564
2017-10-22T04:02:11.227Z,100559
2017-10-22T04:04:37.509Z,100554
2017-10-22T04:07:03.787Z,100556
2017-10-22T04:09:30.090Z,100553
2017-10-22T04:11:57.115Z,100550
2017-10-22T04:14:23.387Z,100552
2017-10-22T04:16:49.661Z,100555
2017-10-22T04:19:16.796Z,100555
2017-10-22T04:21:43.061Z,100559
2017-10-22T04:24:09.333Z,100559
2017-10-22T04:26:35.644Z,100555
2017-10-22T04:29:01.934Z,100553
2017-10-22T04:31:28.200Z,100545
2017-10-22T04:33:55.250Z,100553
2017-10-22T04:36:22.501Z,100552
2017-10-22T04:38:49.533Z,100553
2017-10-22T04:41:16.582Z,100550
2017-10-22T04:43:43.604Z,100549
2017-10-22T04:46:09.872Z,100550
2017-10-22T04:48:36.165Z,100547
2017-10-22T04:51:02.651Z,100546
2017-10-22T04:53:28.909Z,100546
2017-10-22T04:55:55.168Z,100536
2017-10-22T04:58:21.449Z,100535
2017-10-22T05:00:47.748Z,100538
2017-10-22T05:03:14.753Z,100537
2017-10-22T05:05:41.052Z,100538
2017-10-22T05:08:07.316Z,100540
2017-10-22T05:10:33.623Z,100538
2017-10-22T05:13:00.137Z,100536
2017-10-22T05:15:26.424Z,100537
2017-10-22T05:17:52.704Z,100531
2017-10-22T05:20:19.156Z,100534
2017-10-22T05:22:45.425Z,100537
2017-10-22T05:25:12.434Z,100532
2017-10-22T05:27:38.757Z,100537
2017-10-22T05:30:05.047Z,100534
2017-10-22T05:32:31.348Z,100535
2017-10-22T05:34:57.645Z,100535
2017-10-22T05:37:23.939Z,100533
2017-10-22T05:39:50.221Z,100529
2017-10-22T05:42:16.549Z,100534
2017-10-22T05:44:42.821Z,100533
2017-10-22T05:47:09.105Z,100536
2017-10-22T05:49:35.433Z,100534
2017-10-22T05:52:01.717Z,100534
2017-10-22T05:54:27.992Z,100533
2017-10-22T05:56:54.311Z,100531
2017-10-22T05:59:20.606Z,100529
2017-10-22T06:01:46.897Z,100533
2017-10-22T06:04:13.232Z,100528
2017-10-22T06:06:39.534Z,100520
2017-10-22T06:09:05.841Z,100528
2017-10-22T06:11:32.371Z,100523
2017-10-22T06:13:58.664Z,100522
2017-10-22T06:16:25.677Z,100516
2017-10-22T06:18:51.985Z,100517
2017-10-22T06:21:18.269Z,100516
2017-10-22T06:23:44.592Z,100516
2017-10-22T06:26:10.885Z,100523
2017-10-22T06:28:37.201Z,100528
2017-10-22T06:31:03.486Z,100533
2017-10-22T06:33:30.571Z,100532
2017-10-22T06:35:56.903Z,100537
2017-10-22T06:38:23.221Z,100538
2017-10-22T06:40:50.027Z,100538
2017-10-22T06:43:16.394Z,100541
2017-10-22T06:45:42.712Z,100535
2017-10-22T06:48:09.759Z,100534
2017-10-22T06:50:37.001Z,100533
2017-10-22T06:53:04.070Z,100535
2017-10-22T06:55:30.407Z,100536
2017-10-22T06:57:56.766Z,100533
2017-10-22T07:00:23.137Z,100530
2017-10-22T07:02:50.204Z,100524
2017-10-22T07:05:17.473Z,100520
2017-10-22T07:07:43.757Z,100524
2017-10-22T07:10:10.066Z,100518
2017-10-22T07:12:36.390Z,100521
2017-10-22T07:15:02.715Z,100516
2017-10-22T07:17:29.036Z,100520
2017-10-22T07:19:55.338Z,100520
2017-10-22T07:22:21.606Z,100518
2017-10-22T07:24:47.892Z,100518
2017-10-22T07:27:14.941Z,100519
2017-10-22T07:29:41.973Z,100520
2017-10-22T07:32:09.003Z,100514
2017-10-22T07:34:35.357Z,100514
2017-10-22T07:37:02.405Z,100512
2017-10-22T07:39:29.423Z,100512
2017-10-22T07:41:55.789Z,100510
2017-10-22T07:44:22.826Z,100510
2017-10-22T07:46:49.902Z,100503
2017-10-22T07:49:16.220Z,100498
2017-10-22T07:51:42.531Z,100500
2017-10-22T07:54:09.581Z,100498
2017-10-22T07:56:36.606Z,100500
2017-10-22T07:59:02.898Z,100497
2017-10-22T08:01:30.097Z,100492
2017-10-22T08:03:56.377Z,100491
2017-10-22T08:06:22.665Z,100488
2017-10-22T08:08:49.678Z,100487
2017-10-22T08:11:15.971Z,100483
2017-10-22T08:13:42.311Z,100485
2017-10-22T08:16:08.597Z,100487
2017-10-22T08:18:35.637Z,100486
2017-10-22T08:21:02.717Z,100487
2017-10-22T08:23:29.260Z,100486
2017-10-22T08:25:55.526Z,100488
2017-10-22T08:28:21.878Z,100483
2017-10-22T08:30:48.574Z,100487
2017-10-22T08:33:14.850Z,100483
2017-10-22T08:35:41.905Z,100485
2017-10-22T08:38:09.070Z,100485
2017-10-22T08:40:35.386Z,100483
2017-10-22T08:43:02.537Z,100479
2017-10-22T08:45:29.592Z,100480
2017-10-22T08:47:56.668Z,100473
2017-10-22T08:50:22.957Z,100470
2017-10-22T08:52:50.064Z,100468
2017-10-22T08:55:16.394Z,100463
2017-10-22T08:57:42.709Z,100462
2017-10-22T09:00:09.095Z,100463
2017-10-22T09:02:36.150Z,100460
2017-10-22T09:05:03.226Z,100456
2017-10-22T09:07:29.551Z,100460
2017-10-22T09:09:55.853Z,100458
2017-10-22T09:12:22.928Z,100458
2017-10-22T09:14:49.220Z,100459
2017-10-22T09:17:15.550Z,100454
2017-10-22T09:19:42.069Z,100457
2017-10-22T09:22:08.397Z,100456
2017-10-22T09:24:34.714Z,100458
2017-10-22T09:27:01.084Z,100455
2017-10-22T09:29:28.221Z,100455
2017-10-22T09:31:54.548Z,100455
2017-10-22T09:34:21.134Z,100456
2017-10-22T09:36:47.444Z,100464
2017-10-22T09:39:14.529Z,100463
2017-10-22T09:41:40.874Z,100458
2017-10-22T09:44:07.223Z,100463
2017-10-22T09:46:33.545Z,100465
2017-10-22T09:49:00.075Z,100459
2017-10-22T09:51:26.446Z,100458
2017-10-22T09:53:53.511Z,100455
2017-10-22T09:56:19.937Z,100456
2017-10-22T09:58:46.240Z,100457
2017-10-22T10:01:13.490Z,100463
2017-10-22T10:03:40.070Z,100458
2017-10-22T10:06:06.374Z,100456
2017-10-22T10:08:33.413Z,100464
2017-10-22T10:11:00.801Z,100467
2017-10-22T10:13:27.122Z,100470
2017-10-22T10:15:53.446Z,100468
2017-10-22T10:18:20.103Z,100462
2017-10-22T10:20:46.438Z,100463
2017-10-22T10:23:12.749Z,100457
2017-10-22T10:25:39.104Z,100470
2017-10-22T10:28:05.421Z,100466
2017-10-22T10:30:31.738Z,100464
2017-10-22T10:32:58.064Z,100462
2017-10-22T10:35:24.371Z,100467
2017-10-22T10:37:50.676Z,100471
2017-10-22T10:40:17.047Z,100464
2017-10-22T10:42:44.089Z,100466
2017-10-22T10:45:11.135Z,100466
2017-10-22T10:47:38.210Z,100463
2017-10-22T10:50:04.529Z,100460
2017-10-22T10:52:30.890Z,100463
2017-10-22T10:54:57.214Z,100463
2017-10-22T10:57:23.571Z,100464
2017-10-22T10:59:49.914Z,100470
2017-10-22T11:02:16.268Z,100472
2017-10-22T11:04:43.300Z,100476
2017-10-22T11:07:09.658Z,100475
2017-10-22T11:09:35.981Z,100473
2017-10-22T11:12:03.087Z,100470
2017-10-22T11:14:29.417Z,100475
2017-10-22T11:16:55.712Z,100471
2017-10-22T11:19:22.002Z,100470
2017-10-22T11:21:48.476Z,100470
2017-10-22T11:24:14.765Z,100462
2017-10-22T11:26:41.801Z,100469
2017-10-22T11:29:08.193Z,100461
2017-10-22T11:31:34.462Z,100466
2017-10-22T11:34:00.745Z,100464
2017-10-22T11:36:27.034Z,100467
2017-10-22T11:38:54.036Z,100459
2017-10-22T11:41:20.516Z,100466
2017-10-22T11:43:47.521Z,100461
2017-10-22T11:46:13.814Z,100459
2017-10-22T11:48:40.161Z,100452
2017-10-22T11:51:06.430Z,100456
2017-10-22T11:53:32.710Z,100451
2017-10-22T11:55:59.014Z,100449
2017-10-22T11:58:26.048Z,100448
2017-10-22T12:00:52.333Z,100450
2017-10-22T12:03:18.642Z,100454
2017-10-22T12:05:45.346Z,100452
2017-10-22T12:08:11.645Z,100451
2017-10-22T12:10:38.530Z,100449
2017-10-22T12:13:05.934Z,100450
2017-10-22T12:15:33.105Z,100452
2017-10-22T12:17:59.424Z,100447
2017-10-22T12:20:25.893Z,100446
2017-10-22T12:22:52.950Z,100446
2017-10-22T12:25:20.004Z,100446
2017-10-22T12:27:49.035Z,100442
2017-10-22T12:30:15.333Z,100447
2017-10-22T12:32:42.925Z,100444
2017-10-22T12:35:09.196Z,100442
2017-10-22T12:37:35.498Z,100442
2017-10-22T12:40:02.370Z,100440
2017-10-22T12:42:28.651Z,100439
2017-10-22T12:44:55.187Z,100433
2017-10-22T12:47:21.490Z,100430
2017-10-22T12:49:47.824Z,100429
2017-10-22T12:52:14.109Z,100434
2017-10-22T12:54:40.393Z,100439
2017-10-22T12:57:06.709Z,100429
2017-10-22T12:59:32.998Z,100435
2017-10-22T13:02:00.007Z,100434
2017-10-22T13:04:27.027Z,100435
2017-10-22T13:06:54.040Z,100439
2017-10-22T13:09:20.362Z,100440
2017-10-22T13:11:46.654Z,100440
2017-10-22T13:14:12.978Z,100440
2017-10-22T13:16:39.397Z,100440
2017-10-22T13:19:05.676Z,100441
2017-10-22T13:21:31.985Z,100450
2017-10-22T13:23:58.993Z,100449
2017-10-22T13:26:26.058Z,100451
2017-10-22T13:28:52.337Z,100448
2017-10-22T13:31:18.681Z,100445
2017-10-22T13:33:44.957Z,100448
2017-10-22T13:36:11.280Z,100448
2017-10-22T13:38:37.594Z,100447
2017-10-22T13:41:04.646Z,100448
2017-10-22T13:43:31.265Z,100450
2017-10-22T13:45:59.374Z,100452
2017-10-22T13:48:25.984Z,100449
2017-10-22T13:50:52.309Z,100456
2017-10-22T13:53:19.453Z,100454
2017-10-22T13:55:46.546Z,100460
2017-10-22T13:58:12.848Z,100459
2017-10-22T14:00:40.121Z,100464
2017-10-22T14:03:06.444Z,100465
2017-10-22T14:05:32.745Z,100457
2017-10-22T14:08:00.010Z,100464
2017-10-22T14:10:26.297Z,100463
2017-10-22T14:12:52.924Z,100462
2017-10-22T14:15:19.281Z,100463
2017-10-22T14:17:45.871Z,100463
2017-10-22T14:20:12.424Z,100465
2017-10-22T14:22:39.050Z,100465
2017-10-22T14:25:05.338Z,100467
2017-10-22T14:27:32.546Z,100467
2017-10-22T14:29:59.062Z,100464
2017-10-22T14:32:25.383Z,100466
2017-10-22T14:34:51.826Z,100467
2017-10-22T14:37:18.237Z,100471
2017-10-22T14:39:44.578Z,100473
2017-10-22T14:42:10.958Z,100478
2017-10-22T14:44:37.305Z,100477
2017-10-22T14:47:04.569Z,100480
2017-10-22T14:49:31.662Z,100485
2017-10-22T14:51:58.192Z,100484
2017-10-22T14:54:24.497Z,100485
2017-10-22T14:56:50.789Z,100482
2017-10-22T14:59:17.382Z,100487
2017-10-22T15:01:43.678Z,100489
2017-10-22T15:04:10.692Z,100496
2017-10-22T15:06:36.990Z,100490
2017-10-22T15:09:03.360Z,100496
2017-10-22T15:11:30.012Z,100497
2017-10-22T15:13:57.352Z,100499
2017-10-22T15:16:23.675Z,100502
2017-10-22T15:18:50.269Z,100508
2017-10-22T15:21:16.554Z,100510
2017-10-22T15:23:43.375Z,100508
2017-10-22T15:26:09.941Z,100510
2017-10-22T15:28:36.957Z,100507
2017-10-22T15:31:03.317Z,100511
2017-10-22T15:33:29.965Z,100508
2017-10-22T15:35:56.984Z,100513
2017-10-22T15:38:23.273Z,100513
2017-10-22T15:40:49.802Z,100514
2017-10-22T15:43:16.177Z,100515
2017-10-22T15:45:42.476Z,100522
2017-10-22T15:48:09.059Z,100522
2017-10-22T15:50:35.427Z,100522
2017-10-22T15:53:01.721Z,100523
2017-10-22T15:55:28.995Z,100522
2017-10-22T15:57:55.270Z,100525
2017-10-22T16:00:21.553Z,100529
2017-10-22T16:02:48.317Z,100529
2017-10-22T16:05:14.610Z,100528
2017-10-22T16:07:41.749Z,100531
2017-10-22T16:10:09.988Z,100530
2017-10-22T16:12:37.256Z,100532
2017-10-22T16:15:03.917Z,100533
2017-10-22T16:17:30.996Z,100534
2017-10-22T16:19:57.615Z,100536
2017-10-22T16:22:23.937Z,100541
2017-10-22T16:24:50.985Z,100538
2017-10-22T16:27:18.045Z,100548
2017-10-22T16:29:45.069Z,100553
2017-10-22T16:32:11.569Z,100556
2017-10-22T16:34:38.574Z,100558
2017-10-22T16:37:05.022Z,100554
2017-10-22T16:39:32.074Z,100563
2017-10-22T16:41:58.412Z,100561
2017-10-22T16:44:25.306Z,100562
2017-10-22T16:46:52.362Z,100567
2017-10-22T16:49:19.506Z,100568
2017-10-22T16:51:46.617Z,100569
2017-10-22T16:54:13.217Z,100572
2017-10-22T16:56:39.573Z,100571
2017-10-22T16:59:06.086Z,100573
2017-10-22T17:01:32.411Z,100572
2017-10-22T17:03:59.154Z,100576
2017-10-22T17:06:25.507Z,100580
2017-10-22T17:08:52.017Z,100582
2017-10-22T17:11:18.388Z,100581
2017-10-22T17:13:44.770Z,100590
2017-10-22T17:16:12.514Z,100588
2017-10-22T17:18:39.096Z,100588
2017-10-22T17:21:06.204Z,100592
2017-10-22T17:23:33.469Z,100596
2017-10-22T17:26:00.154Z,100601
2017-10-22T17:28:26.729Z,100602
2017-10-22T17:30:53.777Z,100603
2017-10-22T17:33:20.850Z,100608
2017-10-22T17:35:47.148Z,100613
2017-10-22T17:38:13.470Z,100616
2017-10-22T17:40:40.079Z,100618
2017-10-22T17:43:06.626Z,100616
2017-10-22T17:45:33.458Z,100617
2017-10-22T17:48:00.788Z,100621
2017-10-22T17:50:27.157Z,100624
2017-10-22T17:52:54.217Z,100626
2017-10-22T17:55:21.207Z,100626
2017-10-22T17:57:47.524Z,100627
2017-10-22T18:00:14.741Z,100629
2017-10-22T18:02:41.637Z,100629
2017-10-22T18:05:07.971Z,100629
2017-10-22T18:07:34.282Z,100639
2017-10-22T18:10:00.647Z,100643
2017-10-22T18:12:27.866Z,100641
2017-10-22T18:14:54.238Z,100644
2017-10-22T18:17:20.693Z,100644
2017-10-22T18:19:47.261Z,100650
2017-10-22T18:22:13.615Z,100644
2017-10-22T18:24:39.974Z,100647
2017-10-22T18:27:06.942Z,100647
2017-10-22T18:29:34.952Z,100647
2017-10-22T18:32:01.625Z,100648
2017-10-22T18:34:27.955Z,100653
2017-10-22T18:36:55.261Z,100649
2017-10-22T18:39:22.103Z,100651
2017-10-22T18:41:49.799Z,100649
2017-10-22T18:44:16.935Z,100656
2017-10-22T18:46:43.452Z,100655
2017-10-22T18:49:10.316Z,100661
2017-10-22T18:51:36.632Z,100662
2017-10-22T18:54:03.336Z,100664
2017-10-22T18:56:30.833Z,100661
2017-10-22T18:58:57.962Z,100665
2017-10-22T19:01:24.600Z,100662
2017-10-22T19:03:51.806Z,100666
2017-10-22T19:06:18.143Z,100664
2017-10-22T19:08:45.391Z,100663
2017-10-22T19:11:13.381Z,100662
2017-10-22T19:13:39.929Z,100672
2017-10-22T19:16:07.479Z,100666
2017-10-22T19:18:34.770Z,100667
2017-10-22T19:21:01.121Z,100672
2017-10-22T19:23:27.447Z,100673
2017-10-22T19:25:53.775Z,100676
2017-10-22T19:28:20.061Z,100673
2017-10-22T19:30:47.128Z,100672
2017-10-22T19:33:13.943Z,100674
2017-10-22T19:35:40.312Z,100677
2017-10-22T19:38:06.626Z,100672
2017-10-22T19:40:33.462Z,100678
2017-10-22T19:43:01.845Z,100674
2017-10-22T19:45:29.078Z,100675
2017-10-22T19:47:55.698Z,100668
2017-10-22T19:50:22.922Z,100670
2017-10-22T19:52:49.237Z,100674
2017-10-22T19:55:15.548Z,100677
2017-10-22T19:57:42.116Z,100684
2017-10-22T20:00:08.800Z,100679
2017-10-22T20:02:35.845Z,100677
2017-10-22T20:05:04.182Z,100683
2017-10-22T20:07:30.562Z,100685
2017-10-22T20:09:57.598Z,100686
2017-10-22T20:12:24.179Z,100688
2017-10-22T20:14:51.108Z,100688
2017-10-22T20:17:17.467Z,100692
2017-10-22T20:19:44.645Z,100692
2017-10-22T20:22:11.717Z,100691
2017-10-22T20:24:38.955Z,100695
2017-10-22T20:27:05.438Z,100694
2017-10-22T20:29:32.230Z,100696
2017-10-22T20:31:59.456Z,100699
2017-10-22T20:34:26.746Z,100708
2017-10-22T20:36:53.813Z,100707
2017-10-22T20:39:20.515Z,100709
2017-10-22T20:41:47.960Z,100708
2017-10-22T20:44:14.354Z,100706
2017-10-22T20:46:41.018Z,100707
2017-10-22T20:49:07.593Z,100708
2017-10-22T20:51:34.993Z,100707
2017-10-22T20:54:01.940Z,100713
2017-10-22T20:56:28.562Z,100717
2017-10-22T20:58:54.898Z,100719
2017-10-22T21:01:21.746Z,100720
2017-10-22T21:03:48.102Z,100724
2017-10-22T21:06:14.774Z,100724
2017-10-22T21:08:42.797Z,100729
2017-10-22T21:11:09.118Z,100724
2017-10-22T21:13:35.837Z,100725
2017-10-22T21:16:02.743Z,100731
2017-10-22T21:18:29.952Z,100727
2017-10-22T21:20:56.293Z,100734
2017-10-22T21:23:22.639Z,100733
2017-10-22T21:25:49.086Z,100728
2017-10-22T21:28:15.370Z,100739
2017-10-22T21:30:41.649Z,100736
2017-10-22T21:33:08.129Z,100739
2017-10-22T21:35:34.512Z,100740
2017-10-22T21:38:00.785Z,100743
2017-10-22T21:40:27.363Z,100742
2017-10-22T21:42:54.264Z,100749
2017-10-22T21:45:20.528Z,100745
2017-10-22T21:47:46.821Z,100743
2017-10-22T21:50:13.105Z,100739
2017-10-22T21:52:39.451Z,100736
2017-10-22T21:55:06.488Z,100741
2017-10-22T21:57:32.867Z,100742
2017-10-22T21:59:59.190Z,100742
2017-10-22T22:02:26.350Z,100746
2017-10-22T22:04:53.931Z,100754
2017-10-22T22:07:20.209Z,100759
2017-10-22T22:09:47.468Z,100760
2017-10-22T22:12:13.857Z,100760
2017-10-22T22:14:40.877Z,100761
2017-10-22T22:17:07.146Z,100766
2017-10-22T22:19:33.436Z,100766
2017-10-22T22:21:59.994Z,100769
2017-10-22T22:24:26.277Z,100770
2017-10-22T22:26:52.943Z,100774
2017-10-22T22:29:19.226Z,100774
2017-10-22T22:31:46.257Z,100769
2017-10-22T22:34:13.161Z,100769
2017-10-22T22:36:39.673Z,100768
2017-10-22T22:39:05.949Z,100771
2017-10-22T22:41:32.269Z,100767
2017-10-22T22:43:58.521Z,100772
2017-10-22T22:46:24.787Z,100772
2017-10-22T22:48:51.093Z,100767
2017-10-22T22:51:18.111Z,100772
2017-10-22T22:53:44.396Z,100771
2017-10-22T22:56:10.719Z,100775
2017-10-22T22:58:36.998Z,100772
2017-10-22T23:01:03.318Z,100770
2017-10-22T23:03:30.553Z,100773
2017-10-22T23:05:56.829Z,100772
2017-10-22T23:08:23.123Z,100774
2017-10-22T23:10:49.748Z,100774
2017-10-22T23:13:16.023Z,100774
2017-10-22T23:15:42.369Z,100777
2017-10-22T23:18:09.651Z,100779
2017-10-22T23:20:35.949Z,100779
2017-10-22T23:23:02.974Z,100775
2017-10-22T23:25:29.291Z,100776
2017-10-22T23:27:55.561Z,100780
2017-10-22T23:30:22.597Z,100772
2017-10-22T23:32:49.621Z,100775
2017-10-22T23:35:15.901Z,100779
2017-10-22T23:37:42.212Z,100775
2017-10-22T23:40:09.225Z,100779
2017-10-22T23:42:35.526Z,100785
2017-10-22T23:45:01.917Z,100780
2017-10-22T23:47:28.929Z,100778
2017-10-22T23:49:55.241Z,100777
2017-10-22T23:52:21.522Z,100781
2017-10-22T23:54:48.548Z,100775
2017-10-22T23:57:14.873Z,100775
2017-10-22T23:59:41.149Z,100772
